Time;durP1;ratioP1;P1;durP2;ratioP2;P2;SDS_P1;SDS_P2;PMS_P1;PMS_P2;Temp;Humidity;BMP_temperature;BMP_pressure;BME280_temperature;BME280_humidity;BME280_pressure;Samples;Min_cycle;Max_cycle;Signal;HPM_P1;HPM_P2
2021/03/01 00:00:30;;;;;;;14.95;6.47;;;1.20;99.90;;;;;;5049479;28;20025;-78
2021/03/01 00:02:56;;;;;;;16.80;7.55;;;1.10;99.90;;;;;;5050401;28;20037;-78
2021/03/01 00:05:22;;;;;;;16.73;7.32;;;1.10;99.90;;;;;;5082721;28;20052;-77
2021/03/01 00:07:48;;;;;;;16.63;6.13;;;1.10;99.90;;;;;;5049058;28;20122;-77
2021/03/01 00:10:15;;;;;;;18.95;7.68;;;1.00;99.90;;;;;;5086053;28;20045;-78
2021/03/01 00:12:42;;;;;;;18.67;8.32;;;0.90;99.90;;;;;;5036606;28;20079;-78
2021/03/01 00:15:11;;;;;;;17.80;8.00;;;0.90;99.90;;;;;;5054450;28;20091;-77
2021/03/01 00:17:37;;;;;;;20.25;8.38;;;0.90;99.90;;;;;;5052042;28;20021;-77
2021/03/01 00:20:08;;;;;;;16.45;7.70;;;0.80;99.90;;;;;;5086776;28;20389;-78
2021/03/01 00:22:34;;;;;;;19.17;7.97;;;0.90;99.90;;;;;;5086644;28;20537;-78
2021/03/01 00:25:00;;;;;;;16.85;7.82;;;0.90;99.90;;;;;;5053785;28;20033;-79
2021/03/01 00:27:26;;;;;;;21.30;8.20;;;0.90;99.90;;;;;;5052829;28;20499;-77
2021/03/01 00:29:51;;;;;;;19.05;7.75;;;0.80;99.90;;;;;;5052934;28;20025;-78
2021/03/01 00:32:17;;;;;;;16.10;7.82;;;0.70;99.90;;;;;;5053957;28;20033;-77
2021/03/01 00:34:43;;;;;;;20.83;9.38;;;0.70;99.90;;;;;;5086326;28;20369;-77
2021/03/01 00:37:08;;;;;;;18.00;7.90;;;0.80;99.90;;;;;;5052463;28;20064;-79
2021/03/01 00:39:34;;;;;;;20.90;8.40;;;0.80;99.90;;;;;;5053785;28;20037;-77
2021/03/01 00:42:00;;;;;;;23.08;9.10;;;0.80;99.90;;;;;;5054104;28;20033;-78
2021/03/01 00:44:26;;;;;;;17.55;8.55;;;0.80;99.90;;;;;;5054092;28;20036;-77
2021/03/01 00:46:52;;;;;;;21.65;9.05;;;0.70;99.90;;;;;;5084655;28;20033;-76
2021/03/01 00:49:17;;;;;;;21.67;9.68;;;0.70;99.90;;;;;;5053430;28;20025;-76
2021/03/01 00:51:43;;;;;;;21.52;9.07;;;0.70;99.90;;;;;;5053725;28;20029;-76
2021/03/01 00:54:10;;;;;;;21.48;10.30;;;0.60;99.90;;;;;;5051735;28;20110;-76
2021/03/01 00:56:48;;;;;;;21.10;9.00;;;0.60;99.90;;;;;;5084376;28;20029;-76
2021/03/01 00:59:14;;;;;;;25.17;10.40;;;0.50;99.90;;;;;;5052076;28;20025;-76
2021/03/01 01:01:41;;;;;;;21.45;8.77;;;0.50;99.90;;;;;;5085449;28;20495;-76
2021/03/01 01:04:06;;;;;;;25.65;10.82;;;0.50;99.90;;;;;;5051903;28;20102;-76
2021/03/01 01:06:33;;;;;;;20.67;8.98;;;0.50;99.90;;;;;;5083951;28;20608;-76
2021/03/01 01:08:59;;;;;;;23.45;9.98;;;0.50;99.90;;;;;;5052161;28;20076;-76
2021/03/01 01:11:24;;;;;;;20.23;9.23;;;0.50;99.90;;;;;;5085718;28;20025;-76
2021/03/01 01:13:50;;;;;;;19.23;9.77;;;0.50;99.90;;;;;;5051977;28;20499;-76
2021/03/01 01:16:16;;;;;;;22.50;10.60;;;0.50;99.90;;;;;;5051988;28;20462;-76
2021/03/01 01:18:42;;;;;;;23.10;9.85;;;0.50;99.90;;;;;;5051518;28;20032;-76
2021/03/01 01:21:08;;;;;;;24.52;9.68;;;0.50;99.90;;;;;;5035037;28;20135;-76
2021/03/01 01:23:33;;;;;;;25.35;10.68;;;0.50;99.90;;;;;;5052806;28;20067;-76
2021/03/01 01:25:59;;;;;;;22.63;10.00;;;0.50;99.90;;;;;;5053052;28;20071;-77
2021/03/01 01:28:25;;;;;;;31.05;11.50;;;0.40;99.90;;;;;;5052023;28;20033;-76
2021/03/01 01:30:50;;;;;;;25.05;9.30;;;0.40;99.90;;;;;;5052651;28;20486;-76
2021/03/01 01:33:16;;;;;;;20.48;9.57;;;0.40;99.90;;;;;;5052574;28;20090;-76
2021/03/01 01:35:42;;;;;;;22.33;9.95;;;0.30;99.90;;;;;;5045871;28;20109;-77
2021/03/01 01:38:13;;;;;;;21.00;7.82;;;0.30;99.90;;;;;;5047932;28;20040;-76
2021/03/01 01:40:42;;;;;;;22.75;9.85;;;0.30;99.90;;;;;;5052826;28;20029;-76
2021/03/01 01:43:08;;;;;;;15.85;7.07;;;0.30;99.90;;;;;;5051288;28;20044;-76
2021/03/01 01:45:33;;;;;;;17.30;7.15;;;0.30;99.90;;;;;;5052187;28;20025;-76
2021/03/01 01:47:59;;;;;;;15.57;6.60;;;0.20;99.90;;;;;;5051394;28;20041;-76
2021/03/01 01:50:27;;;;;;;16.73;7.60;;;0.20;99.90;;;;;;5067961;28;20509;-76
2021/03/01 01:52:54;;;;;;;19.23;8.23;;;0.20;99.90;;;;;;5050702;28;20581;-76
2021/03/01 01:55:21;;;;;;;21.08;8.15;;;0.20;99.90;;;;;;5051120;28;20029;-76
2021/03/01 01:57:47;;;;;;;21.42;8.43;;;0.10;99.90;;;;;;5047950;28;20136;-77
2021/03/01 02:03:35;;;;;;;23.70;9.82;;;0.10;99.90;;;;;;5048930;28;20099;-76
2021/03/01 02:06:10;;;;;;;23.08;9.75;;;0.10;99.90;;;;;;5035689;28;20037;-76
2021/03/01 02:09:02;;;;;;;22.85;9.50;;;0.10;99.90;;;;;;5050455;28;20072;-76
2021/03/01 02:11:49;;;;;;;23.73;9.05;;;0.00;99.90;;;;;;5051019;28;20044;-76
2021/03/01 02:14:32;;;;;;;20.73;8.77;;;0.00;99.90;;;;;;5051808;28;20410;-77
2021/03/01 02:16:58;;;;;;;18.83;8.35;;;0.00;99.90;;;;;;5049403;28;20029;-76
2021/03/01 02:19:24;;;;;;;17.50;8.00;;;0.00;99.90;;;;;;5051788;28;20078;-76
2021/03/01 02:21:51;;;;;;;18.60;8.07;;;0.00;99.90;;;;;;5050504;28;20075;-76
2021/03/01 02:24:38;;;;;;;15.07;7.22;;;-0.10;99.90;;;;;;5084116;28;20037;-76
2021/03/01 02:27:06;;;;;;;16.67;7.20;;;-0.10;99.90;;;;;;5020334;28;20042;-76
2021/03/01 02:29:34;;;;;;;18.75;7.10;;;-0.10;99.90;;;;;;5063676;28;20046;-77
2021/03/01 02:32:02;;;;;;;21.13;8.40;;;-0.10;99.90;;;;;;5063408;28;20446;-77
2021/03/01 02:34:34;;;;;;;20.08;7.88;;;-0.10;99.90;;;;;;5063825;28;20043;-76
2021/03/01 02:37:06;;;;;;;15.85;7.18;;;-0.10;99.90;;;;;;5029760;28;20033;-76
2021/03/01 02:39:35;;;;;;;16.35;7.05;;;-0.10;99.90;;;;;;5056749;28;20052;-76
2021/03/01 02:42:03;;;;;;;15.05;6.80;;;-0.10;99.90;;;;;;5050552;28;20033;-77
2021/03/01 02:44:29;;;;;;;18.40;7.85;;;-0.20;99.90;;;;;;5051485;28;20107;-77
2021/03/01 02:46:56;;;;;;;15.57;7.13;;;-0.30;99.90;;;;;;5050588;28;20033;-77
2021/03/01 02:49:22;;;;;;;17.08;7.35;;;-0.30;99.90;;;;;;5050531;28;20037;-76
2021/03/01 02:51:50;;;;;;;17.13;7.70;;;-0.30;99.90;;;;;;5050520;28;20071;-77
2021/03/01 02:54:18;;;;;;;19.00;7.57;;;-0.40;99.90;;;;;;5050513;28;20047;-77
2021/03/01 02:56:47;;;;;;;18.17;7.68;;;-0.40;99.90;;;;;;5050099;28;20115;-76
2021/03/01 02:59:15;;;;;;;19.17;8.02;;;-0.50;99.90;;;;;;5050334;28;20064;-77
2021/03/01 03:01:42;;;;;;;19.85;7.30;;;-0.50;99.90;;;;;;5051902;28;20028;-76
2021/03/01 03:04:09;;;;;;;21.05;7.72;;;-0.50;99.90;;;;;;5050395;28;20487;-76
2021/03/01 03:06:37;;;;;;;18.60;7.45;;;-0.60;99.90;;;;;;5082348;28;20029;-77
2021/03/01 03:09:07;;;;;;;17.00;7.50;;;-0.60;99.90;;;;;;5084195;28;20135;-77
2021/03/01 03:11:33;;;;;;;23.08;7.80;;;-0.60;99.90;;;;;;5084173;28;20112;-77
2021/03/01 03:14:00;;;;;;;18.98;7.65;;;-0.60;99.90;;;;;;5050026;28;20052;-76
2021/03/01 03:16:28;;;;;;;18.35;7.35;;;-0.60;99.90;;;;;;5050874;28;20037;-77
2021/03/01 03:18:55;;;;;;;18.83;8.02;;;-0.70;99.90;;;;;;5051375;28;20017;-76
2021/03/01 03:21:22;;;;;;;15.05;6.90;;;-0.70;99.90;;;;;;5034285;28;20044;-77
2021/03/01 03:23:48;;;;;;;20.40;7.68;;;-0.70;99.90;;;;;;5052004;28;20037;-77
2021/03/01 03:26:15;;;;;;;18.33;8.13;;;-0.70;99.90;;;;;;5083323;28;20528;-77
2021/03/01 03:28:44;;;;;;;17.85;7.70;;;-0.70;99.90;;;;;;5051794;28;20032;-77
2021/03/01 03:31:13;;;;;;;19.92;7.97;;;-0.70;99.90;;;;;;5067794;28;20045;-77
2021/03/01 03:33:41;;;;;;;17.77;7.47;;;-0.70;99.90;;;;;;5052214;28;20071;-77
2021/03/01 03:36:07;;;;;;;22.77;8.20;;;-0.70;99.90;;;;;;5041168;28;20025;-77
2021/03/01 03:39:03;;;;;;;17.05;7.93;;;-0.70;99.90;;;;;;5074373;28;20029;-77
2021/03/01 03:41:31;;;;;;;15.65;6.55;;;-0.70;99.90;;;;;;5048440;28;20032;-77
2021/03/01 03:43:57;;;;;;;18.38;7.10;;;-0.70;99.90;;;;;;5051108;28;20024;-77
2021/03/01 03:46:29;;;;;;;17.45;7.22;;;-0.60;99.90;;;;;;5050090;28;20029;-77
2021/03/01 03:48:56;;;;;;;17.27;7.38;;;-0.60;99.90;;;;;;5051120;28;20124;-77
2021/03/01 03:51:26;;;;;;;16.25;6.88;;;-0.70;99.90;;;;;;5052049;28;20111;-77
2021/03/01 03:54:07;;;;;;;16.60;7.75;;;-0.70;99.90;;;;;;5050931;28;20511;-77
2021/03/01 03:56:36;;;;;;;19.25;7.72;;;-0.80;99.90;;;;;;5051188;28;20582;-77
2021/03/01 03:59:05;;;;;;;19.15;8.00;;;-0.90;99.90;;;;;;5051731;28;20032;-77
2021/03/01 04:01:34;;;;;;;17.98;8.32;;;-0.90;99.90;;;;;;5050850;28;20048;-77
2021/03/01 04:04:04;;;;;;;21.38;8.20;;;-1.00;99.90;;;;;;5051728;28;20045;-77
2021/03/01 04:06:32;;;;;;;22.35;10.13;;;-1.00;99.90;;;;;;5049051;28;20033;-77
2021/03/01 04:08:59;;;;;;;23.70;8.77;;;-1.00;99.90;;;;;;5051028;28;20552;-77
2021/03/01 04:11:27;;;;;;;26.23;9.80;;;-0.90;99.90;;;;;;5051785;28;20025;-77
2021/03/01 04:13:56;;;;;;;21.20;8.65;;;-0.90;99.90;;;;;;5083547;28;20083;-77
2021/03/01 04:16:23;;;;;;;23.45;9.57;;;-0.90;99.90;;;;;;5050102;28;20496;-77
2021/03/01 04:18:53;;;;;;;23.85;9.38;;;-1.00;99.90;;;;;;5050352;28;20051;-77
2021/03/01 04:21:21;;;;;;;21.60;9.32;;;-1.00;99.90;;;;;;5051315;28;20548;-77
2021/03/01 04:23:50;;;;;;;19.45;7.93;;;-0.90;99.90;;;;;;5051730;28;20044;-77
2021/03/01 04:26:16;;;;;;;22.52;9.55;;;-1.00;99.90;;;;;;5083339;28;20060;-77
2021/03/01 04:28:42;;;;;;;23.20;9.77;;;-1.00;99.90;;;;;;5083650;28;20499;-77
2021/03/01 04:31:10;;;;;;;24.52;10.05;;;-0.90;99.90;;;;;;5051693;28;20033;-77
2021/03/01 04:33:37;;;;;;;23.98;9.65;;;-0.90;99.90;;;;;;5051651;28;20575;-77
2021/03/01 04:36:05;;;;;;;25.75;9.95;;;-0.90;99.90;;;;;;5042656;28;20017;-77
2021/03/01 04:38:31;;;;;;;28.73;9.63;;;-0.90;99.90;;;;;;5063322;28;20121;-77
2021/03/01 04:40:58;;;;;;;20.35;8.40;;;-0.90;99.90;;;;;;5051910;28;20403;-77
2021/03/01 04:43:26;;;;;;;22.85;9.82;;;-0.90;99.90;;;;;;5033254;28;20056;-77
2021/03/01 04:45:52;;;;;;;22.48;9.52;;;-0.80;99.90;;;;;;5083517;28;20033;-77
2021/03/01 04:48:19;;;;;;;27.02;10.98;;;-0.80;99.90;;;;;;5050562;28;20028;-77
2021/03/01 04:50:50;;;;;;;26.20;10.27;;;-0.80;99.90;;;;;;5051108;28;20036;-77
2021/03/01 04:53:17;;;;;;;24.42;9.75;;;-0.80;99.90;;;;;;5033251;28;20033;-77
2021/03/01 04:55:44;;;;;;;21.77;9.32;;;-0.90;99.90;;;;;;5054448;28;20399;-77
2021/03/01 04:58:12;;;;;;;23.67;8.68;;;-0.90;99.90;;;;;;5052160;28;20510;-77
2021/03/01 05:00:38;;;;;;;19.65;8.13;;;-0.90;99.90;;;;;;5053435;28;20029;-77
2021/03/01 05:03:06;;;;;;;21.08;8.35;;;-0.90;99.90;;;;;;5054773;28;20036;-77
2021/03/01 05:05:33;;;;;;;22.75;8.80;;;-0.90;99.90;;;;;;5086074;28;20028;-77
2021/03/01 05:08:03;;;;;;;23.15;8.52;;;-0.90;99.90;;;;;;5052754;28;20040;-77
2021/03/01 05:10:29;;;;;;;24.58;9.50;;;-1.00;99.90;;;;;;5086361;28;20036;-77
2021/03/01 05:12:54;;;;;;;24.90;10.15;;;-0.90;99.90;;;;;;5054183;28;20089;-77
2021/03/01 05:15:20;;;;;;;24.88;9.35;;;-1.00;99.90;;;;;;5053487;28;20029;-77
2021/03/01 05:17:46;;;;;;;25.42;9.73;;;-1.00;99.90;;;;;;5053177;28;20431;-77
2021/03/01 05:20:13;;;;;;;20.38;8.95;;;-0.90;99.90;;;;;;5053580;28;20064;-77
2021/03/01 05:22:39;;;;;;;29.05;10.30;;;-0.90;99.90;;;;;;5052999;28;20444;-77
2021/03/01 05:25:05;;;;;;;23.65;9.48;;;-0.90;99.90;;;;;;5053012;28;20052;-77
2021/03/01 05:27:33;;;;;;;25.23;9.98;;;-1.00;99.90;;;;;;5052228;28;20033;-77
2021/03/01 05:29:59;;;;;;;21.50;9.45;;;-1.10;99.90;;;;;;5053810;28;20113;-77
2021/03/01 05:32:25;;;;;;;23.85;9.60;;;-1.10;99.90;;;;;;5053696;28;20112;-77
2021/03/01 05:34:52;;;;;;;25.13;9.98;;;-1.20;99.90;;;;;;5053182;28;20450;-77
2021/03/01 05:37:17;;;;;;;29.33;11.38;;;-1.20;99.90;;;;;;5048624;28;20031;-77
2021/03/01 05:39:43;;;;;;;26.45;10.13;;;-1.20;99.90;;;;;;5043188;28;20033;-77
2021/03/01 05:42:13;;;;;;;25.77;9.85;;;-1.10;99.90;;;;;;5052107;28;20052;-77
2021/03/01 05:44:40;;;;;;;29.50;11.15;;;-1.20;99.90;;;;;;5052534;28;20024;-77
2021/03/01 05:47:09;;;;;;;29.23;11.30;;;-1.20;99.90;;;;;;5083552;28;20483;-77
2021/03/01 05:49:37;;;;;;;26.70;10.25;;;-1.30;99.90;;;;;;5051261;28;20037;-77
2021/03/01 05:52:05;;;;;;;26.40;10.85;;;-1.20;99.90;;;;;;5051552;28;20555;-77
2021/03/01 05:54:34;;;;;;;30.83;11.95;;;-1.30;99.90;;;;;;5052651;28;20032;-77
2021/03/01 05:57:01;;;;;;;32.13;12.60;;;-1.30;99.90;;;;;;5066717;28;20040;-77
2021/03/01 05:59:28;;;;;;;26.75;10.98;;;-1.30;99.90;;;;;;5052911;28;20029;-77
2021/03/01 06:01:55;;;;;;;31.90;11.93;;;-1.30;99.90;;;;;;5053033;28;20175;-77
2021/03/01 06:04:21;;;;;;;29.85;11.43;;;-1.20;99.90;;;;;;5051869;28;20395;-77
2021/03/01 06:06:47;;;;;;;30.10;11.55;;;-1.20;99.90;;;;;;5032476;28;20037;-77
2021/03/01 06:09:12;;;;;;;29.35;11.93;;;-1.20;99.90;;;;;;5085159;28;20055;-77
2021/03/01 06:11:38;;;;;;;32.78;11.70;;;-1.20;99.90;;;;;;5084768;28;20041;-77
2021/03/01 06:14:05;;;;;;;28.33;11.57;;;-1.10;99.90;;;;;;5052788;28;20025;-77
2021/03/01 06:16:31;;;;;;;25.48;10.38;;;-1.10;99.90;;;;;;5050583;28;20036;-77
2021/03/01 06:18:56;;;;;;;28.27;10.15;;;-1.10;99.90;;;;;;5051100;28;20399;-77
2021/03/01 06:21:23;;;;;;;23.80;9.75;;;-1.10;99.90;;;;;;5052677;28;20115;-77
2021/03/01 06:23:50;;;;;;;25.33;10.65;;;-1.00;99.90;;;;;;5034664;28;20068;-77
2021/03/01 06:26:20;;;;;;;30.90;11.20;;;-1.00;99.90;;;;;;5033086;28;20480;-77
2021/03/01 06:28:47;;;;;;;26.55;10.35;;;-0.90;99.90;;;;;;5051016;28;20087;-77
2021/03/01 06:31:34;;;;;;;26.73;10.80;;;-0.90;99.90;;;;;;5052301;28;20040;-77
2021/03/01 06:34:21;;;;;;;24.45;10.25;;;-0.90;99.90;;;;;;5051441;28;20035;-77
2021/03/01 06:36:59;;;;;;;25.33;10.85;;;-1.00;99.90;;;;;;5051032;28;20159;-77
2021/03/01 06:39:33;;;;;;;27.38;10.75;;;-0.90;99.90;;;;;;5034055;28;20480;-77
2021/03/01 06:42:26;;;;;;;35.08;12.27;;;-0.90;99.90;;;;;;5050729;28;20029;-77
2021/03/01 06:44:57;;;;;;;30.98;11.40;;;-0.80;99.90;;;;;;5050241;28;20025;-77
2021/03/01 06:47:47;;;;;;;29.50;10.65;;;-0.80;99.90;;;;;;5047971;28;20021;-77
2021/03/01 06:50:32;;;;;;;27.40;11.32;;;-0.70;99.90;;;;;;5077302;28;20056;-77
2021/03/01 06:52:58;;;;;;;26.20;10.90;;;-0.60;99.90;;;;;;5051701;28;20612;-77
2021/03/01 06:55:24;;;;;;;26.85;10.25;;;-0.70;99.90;;;;;;5050903;28;20032;-78
2021/03/01 06:57:50;;;;;;;28.00;11.45;;;-0.60;99.90;;;;;;5049876;28;20189;-77
2021/03/01 07:00:23;;;;;;;27.02;10.15;;;-0.50;99.90;;;;;;5034372;28;20694;-77
2021/03/01 07:02:49;;;;;;;26.10;10.52;;;-0.40;99.90;;;;;;5050013;28;20029;-77
2021/03/01 07:05:14;;;;;;;30.23;10.23;;;-0.10;99.90;;;;;;5050412;28;20399;-77
2021/03/01 07:07:40;;;;;;;25.10;11.02;;;0.30;99.90;;;;;;5049128;28;20037;-77
2021/03/01 07:10:09;;;;;;;23.73;10.98;;;0.80;99.90;;;;;;5050531;28;20086;-77
2021/03/01 07:12:41;;;;;;;27.55;10.93;;;1.30;99.90;;;;;;5050608;28;20464;-77
2021/03/01 07:15:09;;;;;;;22.02;10.10;;;1.90;99.90;;;;;;5052176;28;20029;-77
2021/03/01 07:17:38;;;;;;;24.70;10.10;;;2.50;99.90;;;;;;5051213;28;20494;-77
2021/03/01 07:20:09;;;;;;;28.95;10.48;;;2.90;99.90;;;;;;5051246;28;20108;-77
2021/03/01 07:22:38;;;;;;;22.38;10.30;;;3.40;99.90;;;;;;5051033;28;20021;-77
2021/03/01 07:25:05;;;;;;;24.77;11.23;;;3.80;99.90;;;;;;5051941;28;20100;-77
2021/03/01 07:27:36;;;;;;;21.73;9.98;;;4.10;99.90;;;;;;5049794;28;20039;-77
2021/03/01 07:30:02;;;;;;;23.25;10.98;;;4.40;99.90;;;;;;5085937;28;20035;-77
2021/03/01 07:32:30;;;;;;;23.20;9.80;;;4.70;99.90;;;;;;5050697;28;20033;-77
2021/03/01 07:34:56;;;;;;;18.90;9.20;;;4.90;99.90;;;;;;5052321;28;20040;-77
2021/03/01 07:37:22;;;;;;;22.60;10.30;;;5.20;99.90;;;;;;5080025;28;20026;-77
2021/03/01 07:39:48;;;;;;;23.75;11.52;;;5.40;99.90;;;;;;5051359;28;20392;-78
2021/03/01 07:42:16;;;;;;;22.98;10.50;;;5.70;99.90;;;;;;5052612;28;20040;-77
2021/03/01 07:44:44;;;;;;;18.08;8.35;;;5.80;99.90;;;;;;5048041;28;20038;-77
2021/03/01 07:47:10;;;;;;;19.50;9.23;;;5.90;99.90;;;;;;5046776;28;20048;-77
2021/03/01 07:49:45;;;;;;;17.05;9.27;;;5.90;99.90;;;;;;5051427;28;20041;-77
2021/03/01 07:52:20;;;;;;;19.70;8.90;;;5.90;99.90;;;;;;5049842;28;20041;-77
2021/03/01 07:54:53;;;;;;;19.52;8.98;;;5.80;99.90;;;;;;5049103;28;20025;-77
2021/03/01 07:57:20;;;;;;;19.20;9.45;;;5.80;99.90;;;;;;5048680;28;20091;-77
2021/03/01 07:59:47;;;;;;;24.38;10.73;;;5.80;99.90;;;;;;5051495;28;20140;-77
2021/03/01 08:02:21;;;;;;;21.15;10.00;;;5.90;99.90;;;;;;5050662;28;20400;-77
2021/03/01 08:04:47;;;;;;;18.38;8.85;;;6.00;99.90;;;;;;5050145;28;20507;-77
2021/03/01 08:07:12;;;;;;;16.90;8.70;;;6.10;99.90;;;;;;5044402;28;20045;-77
2021/03/01 08:09:48;;;;;;;19.75;9.77;;;6.20;99.90;;;;;;5067699;28;20041;-77
2021/03/01 08:12:29;;;;;;;19.58;8.90;;;6.20;99.90;;;;;;5025579;28;20428;-78
2021/03/01 08:15:08;;;;;;;18.48;8.60;;;6.30;99.90;;;;;;5049740;28;20384;-77
2021/03/01 08:17:49;;;;;;;18.30;9.15;;;6.30;99.90;;;;;;5050286;28;20060;-77
2021/03/01 08:20:15;;;;;;;18.77;9.00;;;6.10;99.90;;;;;;5044504;28;20026;-77
2021/03/01 08:23:06;;;;;;;18.70;9.10;;;6.00;99.90;;;;;;5068785;28;20480;-77
2021/03/01 08:25:54;;;;;;;18.75;8.85;;;6.10;99.90;;;;;;5035371;28;20029;-78
2021/03/01 08:28:22;;;;;;;19.02;8.80;;;6.10;99.90;;;;;;5050900;28;20036;-78
2021/03/01 08:30:48;;;;;;;19.65;9.02;;;6.00;99.90;;;;;;5053385;28;20468;-77
2021/03/01 08:33:15;;;;;;;16.73;8.35;;;5.90;99.90;;;;;;5054554;28;20109;-77
2021/03/01 08:35:52;;;;;;;18.42;8.93;;;5.90;99.90;;;;;;5052374;28;20407;-78
2021/03/01 08:38:40;;;;;;;18.58;8.40;;;5.80;99.90;;;;;;5039404;28;20044;-77
2021/03/01 08:41:07;;;;;;;17.65;8.07;;;5.70;99.90;;;;;;5038708;28;20025;-77
2021/03/01 08:43:36;;;;;;;19.38;8.95;;;5.40;99.90;;;;;;5056317;28;20632;-77
2021/03/01 08:46:07;;;;;;;18.85;8.48;;;5.20;99.90;;;;;;5054628;28;20090;-76
2021/03/01 08:48:39;;;;;;;17.63;7.78;;;5.00;99.90;;;;;;5049218;28;20039;-76
2021/03/01 08:51:05;;;;;;;21.90;9.80;;;4.80;99.90;;;;;;5045381;28;20044;-77
2021/03/01 08:53:31;;;;;;;20.60;8.80;;;4.60;99.90;;;;;;5081487;28;20040;-76
2021/03/01 08:55:58;;;;;;;17.98;8.82;;;4.40;99.90;;;;;;5048322;28;20053;-76
2021/03/01 08:58:29;;;;;;;17.20;8.50;;;4.30;99.90;;;;;;5048349;28;20021;-75
2021/03/01 09:00:57;;;;;;;20.15;10.00;;;4.40;99.90;;;;;;5049242;28;20028;-74
2021/03/01 09:03:28;;;;;;;18.40;8.13;;;4.40;99.90;;;;;;5047737;28;20032;-77
2021/03/01 09:06:02;;;;;;;19.35;8.15;;;4.40;99.90;;;;;;5047142;28;20052;-77
2021/03/01 09:08:31;;;;;;;20.23;9.00;;;4.40;99.90;;;;;;5047235;28;20116;-77
2021/03/01 09:11:00;;;;;;;21.10;11.15;;;4.40;99.90;;;;;;5046980;28;20035;-76
2021/03/01 09:13:27;;;;;;;19.40;7.90;;;4.40;99.90;;;;;;5047571;28;20476;-76
2021/03/01 09:15:52;;;;;;;22.27;9.68;;;4.50;99.90;;;;;;5080042;28;20028;-77
2021/03/01 09:18:19;;;;;;;21.63;8.80;;;4.50;99.90;;;;;;5029979;28;20025;-77
2021/03/01 09:20:53;;;;;;;17.00;7.93;;;4.60;99.90;;;;;;5049645;28;20029;-77
2021/03/01 09:23:38;;;;;;;21.30;8.93;;;4.70;99.90;;;;;;5049037;28;20033;-77
2021/03/01 09:26:06;;;;;;;18.67;8.80;;;4.80;99.90;;;;;;5049075;28;20542;-77
2021/03/01 09:28:37;;;;;;;18.13;8.23;;;4.90;99.90;;;;;;5048258;28;20021;-77
2021/03/01 09:31:08;;;;;;;20.55;8.20;;;5.20;99.90;;;;;;5047706;28;20024;-77
2021/03/01 09:33:35;;;;;;;19.45;8.70;;;5.30;99.90;;;;;;5046607;28;20144;-77
2021/03/01 09:36:01;;;;;;;19.98;8.95;;;5.30;99.90;;;;;;5046802;28;20032;-77
2021/03/01 09:38:27;;;;;;;19.10;8.05;;;5.50;99.90;;;;;;5041889;28;20095;-77
2021/03/01 09:41:03;;;;;;;18.17;7.57;;;5.60;99.90;;;;;;5078467;28;20022;-77
2021/03/01 09:43:29;;;;;;;13.77;7.65;;;5.60;99.90;;;;;;5048404;28;20041;-76
2021/03/01 09:45:57;;;;;;;17.73;7.68;;;5.70;99.90;;;;;;5045403;28;20021;-77
2021/03/01 09:48:23;;;;;;;22.15;8.02;;;5.80;99.90;;;;;;5039749;28;20484;-76
2021/03/01 09:50:49;;;;;;;16.75;7.18;;;6.00;99.90;;;;;;5037581;28;20052;-76
2021/03/01 09:53:16;;;;;;;18.83;8.30;;;6.10;99.90;;;;;;5042696;28;20080;-77
2021/03/01 09:55:44;;;;;;;19.50;8.35;;;6.20;99.90;;;;;;5071095;28;20033;-76
2021/03/01 09:58:22;;;;;;;16.27;8.88;;;6.30;99.90;;;;;;5059358;28;20044;-75
2021/03/01 10:00:48;;;;;;;16.25;7.95;;;6.40;99.90;;;;;;5042859;28;20484;-76
2021/03/01 10:03:14;;;;;;;18.15;7.55;;;6.40;99.90;;;;;;5044512;28;20044;-76
2021/03/01 10:05:48;;;;;;;22.20;8.32;;;6.50;99.90;;;;;;5042398;28;20530;-76
2021/03/01 10:08:21;;;;;;;19.30;7.50;;;6.70;99.90;;;;;;5043664;28;20059;-76
2021/03/01 10:10:47;;;;;;;18.05;8.00;;;6.70;99.90;;;;;;5046734;28;20495;-76
2021/03/01 10:13:29;;;;;;;18.67;8.30;;;6.80;99.90;;;;;;5063513;28;20021;-76
2021/03/01 10:15:56;;;;;;;17.35;8.50;;;6.90;99.90;;;;;;5048218;28;20029;-76
2021/03/01 10:18:27;;;;;;;20.63;8.57;;;7.00;99.90;;;;;;5046227;28;20025;-76
2021/03/01 10:21:06;;;;;;;17.17;8.10;;;7.00;99.90;;;;;;5047487;28;20100;-76
2021/03/01 10:23:40;;;;;;;17.75;8.65;;;7.00;99.90;;;;;;5045817;28;20083;-76
2021/03/01 10:26:07;;;;;;;20.27;7.93;;;7.10;99.90;;;;;;5079672;28;20037;-76
2021/03/01 10:28:36;;;;;;;18.58;7.40;;;7.20;99.90;;;;;;5044487;28;20498;-76
2021/03/01 10:31:06;;;;;;;23.90;8.10;;;7.30;99.90;;;;;;5039129;28;20067;-76
2021/03/01 10:33:50;;;;;;;17.70;7.20;;;7.30;99.90;;;;;;5045626;28;20395;-76
2021/03/01 10:36:16;;;;;;;14.45;7.15;;;7.40;99.90;;;;;;5042049;28;20056;-75
2021/03/01 10:38:57;;;;;;;19.08;7.70;;;7.50;99.90;;;;;;5034678;28;20504;-76
2021/03/01 10:41:26;;;;;;;16.38;7.03;;;7.50;99.90;;;;;;5056919;28;20035;-76
2021/03/01 10:44:04;;;;;;;15.48;7.35;;;7.50;99.90;;;;;;5040051;28;20059;-76
2021/03/01 10:46:32;;;;;;;19.15;7.90;;;7.60;99.90;;;;;;5043701;28;20496;-75
2021/03/01 10:48:59;;;;;;;16.15;7.45;;;7.70;99.90;;;;;;5077576;28;20044;-76
2021/03/01 10:51:25;;;;;;;17.95;7.90;;;7.70;99.90;;;;;;5044960;28;20762;-76
2021/03/01 10:53:51;;;;;;;18.48;7.60;;;7.70;99.90;;;;;;5045800;28;20043;-76
2021/03/01 10:56:17;;;;;;;18.33;7.03;;;7.80;99.90;;;;;;5045160;28;20025;-76
2021/03/01 10:58:43;;;;;;;16.98;7.97;;;7.90;99.90;;;;;;5044877;28;20032;-75
2021/03/01 11:01:08;;;;;;;18.08;7.63;;;8.00;99.90;;;;;;5046750;28;20025;-76
2021/03/01 11:03:34;;;;;;;18.55;7.78;;;8.10;99.90;;;;;;5046500;28;20025;-76
2021/03/01 11:06:00;;;;;;;15.18;7.32;;;8.20;99.90;;;;;;5044085;28;20046;-75
2021/03/01 11:08:26;;;;;;;17.67;7.90;;;8.30;99.90;;;;;;5045366;28;20357;-76
2021/03/01 11:10:52;;;;;;;18.38;6.80;;;8.40;99.90;;;;;;5079421;28;20040;-76
2021/03/01 11:13:18;;;;;;;15.48;6.78;;;8.50;99.90;;;;;;5046646;28;20037;-75
2021/03/01 11:15:43;;;;;;;12.85;6.90;;;8.50;99.90;;;;;;5044870;28;20025;-75
2021/03/01 11:18:09;;;;;;;15.90;7.30;;;8.60;99.90;;;;;;5044613;28;20391;-75
2021/03/01 11:20:35;;;;;;;12.68;5.82;;;8.70;99.90;;;;;;5045781;28;20802;-75
2021/03/01 11:23:02;;;;;;;11.38;6.07;;;8.80;99.90;;;;;;5045596;28;20056;-75
2021/03/01 11:25:28;;;;;;;14.07;6.47;;;8.90;99.90;;;;;;5047014;28;20044;-74
2021/03/01 11:27:54;;;;;;;13.77;6.07;;;8.90;99.90;;;;;;5045601;28;20060;-75
2021/03/01 11:30:21;;;;;;;15.57;6.88;;;9.00;99.90;;;;;;5045660;28;20119;-75
2021/03/01 11:32:46;;;;;;;12.00;5.68;;;9.10;99.90;;;;;;5045080;28;20025;-75
2021/03/01 11:35:13;;;;;;;14.90;6.15;;;9.10;99.90;;;;;;5046065;28;20718;-75
2021/03/01 11:37:38;;;;;;;13.85;6.07;;;9.10;99.90;;;;;;5044607;28;20238;-75
2021/03/01 11:40:05;;;;;;;11.40;5.68;;;9.30;99.90;;;;;;5045878;28;20029;-75
2021/03/01 11:42:30;;;;;;;11.05;5.40;;;9.40;99.90;;;;;;5078465;28;20047;-74
2021/03/01 11:44:56;;;;;;;11.90;5.60;;;9.50;99.90;;;;;;5044760;28;20500;-74
2021/03/01 11:47:23;;;;;;;11.73;5.82;;;9.60;99.90;;;;;;5043230;28;20033;-74
2021/03/01 11:49:49;;;;;;;10.52;5.43;;;9.80;99.90;;;;;;5034846;28;20504;-73
2021/03/01 11:52:15;;;;;;;11.57;5.53;;;9.80;99.90;;;;;;5075621;28;20111;-74
2021/03/01 11:54:41;;;;;;;9.70;4.90;;;9.90;99.90;;;;;;5041821;28;20116;-74
2021/03/01 11:57:06;;;;;;;11.52;5.93;;;10.00;99.90;;;;;;5040107;28;20043;-75
2021/03/01 11:59:32;;;;;;;10.30;5.78;;;10.10;99.90;;;;;;5041363;28;20025;-74
2021/03/01 12:01:58;;;;;;;11.68;5.57;;;10.20;99.90;;;;;;5045752;28;20534;-74
2021/03/01 12:04:23;;;;;;;11.10;4.95;;;10.20;99.90;;;;;;5046815;28;20456;-74
2021/03/01 12:06:50;;;;;;;9.48;4.95;;;10.20;99.90;;;;;;5049497;28;20530;-75
2021/03/01 12:09:16;;;;;;;12.55;5.28;;;10.30;99.90;;;;;;5049171;28;20025;-74
2021/03/01 12:11:41;;;;;;;10.38;4.85;;;10.30;99.90;;;;;;5050751;28;20037;-74
2021/03/01 12:14:07;;;;;;;8.82;4.68;;;10.40;99.90;;;;;;5049311;28;20029;-73
2021/03/01 12:16:33;;;;;;;9.52;4.95;;;10.50;99.90;;;;;;5048400;28;20940;-73
2021/03/01 12:18:59;;;;;;;9.48;4.80;;;10.60;99.90;;;;;;5050501;28;20029;-74
2021/03/01 12:21:24;;;;;;;11.60;5.47;;;10.70;99.90;;;;;;5049648;28;20079;-74
2021/03/01 12:23:50;;;;;;;9.50;4.93;;;10.80;99.90;;;;;;5045512;28;20052;-74
2021/03/01 12:26:16;;;;;;;8.95;4.60;;;10.80;99.90;;;;;;5048842;28;20021;-74
2021/03/01 12:28:41;;;;;;;11.48;4.80;;;10.90;99.90;;;;;;5064756;28;20057;-77
2021/03/01 12:31:07;;;;;;;9.73;4.32;;;11.00;99.90;;;;;;5045875;28;20036;-76
2021/03/01 12:33:32;;;;;;;10.73;4.65;;;11.00;99.90;;;;;;5047288;28;20079;-75
2021/03/01 12:35:59;;;;;;;8.23;4.00;;;11.10;99.90;;;;;;5079887;28;20037;-74
2021/03/01 12:38:24;;;;;;;9.27;4.38;;;11.20;99.60;;;;;;5044464;28;20043;-74
2021/03/01 12:40:50;;;;;;;7.63;4.13;;;11.30;99.30;;;;;;5077817;28;20032;-74
2021/03/01 12:43:16;;;;;;;8.32;3.70;;;11.50;98.20;;;;;;5048859;28;20021;-75
2021/03/01 12:45:41;;;;;;;7.97;3.95;;;11.60;98.20;;;;;;5075744;28;20087;-74
2021/03/01 12:48:07;;;;;;;7.13;3.28;;;11.70;96.00;;;;;;5043682;28;20025;-74
2021/03/01 12:50:36;;;;;;;8.18;4.18;;;11.80;95.10;;;;;;5049477;28;20025;-73